createdAt,value
2017-12-24T00:02:25.092Z,6.27
2017-12-24T00:04:53.263Z,6.53
2017-12-24T00:07:21.414Z,6.60
2017-12-24T00:09:49.791Z,6.83
2017-12-24T00:12:18.165Z,6.13
2017-12-24T00:14:46.305Z,7.20
2017-12-24T00:17:14.591Z,5.03
2017-12-24T00:19:42.713Z,6.03
2017-12-24T00:22:10.954Z,5.47
2017-12-24T00:24:39.188Z,5.37
2017-12-24T00:27:07.533Z,4.70
2017-12-24T00:29:36.550Z,5.80
2017-12-24T00:32:04.829Z,5.10
2017-12-24T00:34:33.526Z,4.80
2017-12-24T00:37:01.735Z,5.90
2017-12-24T00:39:29.955Z,5.27
2017-12-24T00:41:58.112Z,4.60
2017-12-24T00:44:26.338Z,5.27
2017-12-24T00:46:54.498Z,4.60
2017-12-24T00:49:22.833Z,5.27
2017-12-24T00:51:50.991Z,4.37
2017-12-24T00:54:19.334Z,4.20
2017-12-24T00:56:47.541Z,4.67
2017-12-24T00:59:15.708Z,4.90
2017-12-24T01:01:43.868Z,4.63
2017-12-24T01:04:12.046Z,4.43
2017-12-24T01:06:40.266Z,4.87
2017-12-24T01:09:08.403Z,4.67
2017-12-24T01:11:36.531Z,4.80
2017-12-24T01:14:04.654Z,4.50
2017-12-24T01:16:32.813Z,4.10
2017-12-24T01:19:00.955Z,4.37
2017-12-24T01:21:29.150Z,3.97
2017-12-24T01:23:57.310Z,4.00
2017-12-24T01:26:25.451Z,4.87
2017-12-24T01:28:53.584Z,4.07
2017-12-24T01:31:21.751Z,3.80
2017-12-24T01:33:49.944Z,4.43
2017-12-24T01:36:18.066Z,4.00
2017-12-24T01:38:46.206Z,3.90
2017-12-24T01:41:15.110Z,4.60
2017-12-24T01:43:43.324Z,5.00
2017-12-24T01:46:11.474Z,4.67
2017-12-24T01:48:39.648Z,4.50
2017-12-24T01:51:07.789Z,4.83
2017-12-24T01:53:35.956Z,4.90
2017-12-24T01:56:04.868Z,5.13
2017-12-24T01:58:33.037Z,4.30
2017-12-24T02:01:01.224Z,4.40
2017-12-24T02:03:29.377Z,4.70
2017-12-24T02:05:57.538Z,4.30
2017-12-24T02:08:26.460Z,4.93
2017-12-24T02:10:54.652Z,5.50
2017-12-24T02:13:22.864Z,4.20
2017-12-24T02:15:51.833Z,4.63
2017-12-24T02:18:20.031Z,4.83
2017-12-24T02:20:49.971Z,5.37
2017-12-24T02:23:33.179Z,5.07
2017-12-24T02:26:02.139Z,5.00
2017-12-24T02:28:30.334Z,4.83
2017-12-24T02:30:59.444Z,4.70
2017-12-24T02:33:27.739Z,4.70
2017-12-24T02:35:56.075Z,4.93
2017-12-24T02:38:24.991Z,5.60
2017-12-24T02:40:53.113Z,5.07
2017-12-24T02:43:21.246Z,5.93
2017-12-24T02:45:49.361Z,4.70
2017-12-24T02:48:17.497Z,5.07
2017-12-24T02:50:45.638Z,5.83
2017-12-24T02:53:13.769Z,5.17
2017-12-24T02:55:41.909Z,5.53
2017-12-24T02:58:10.030Z,5.10
2017-12-24T03:00:38.997Z,5.33
2017-12-24T03:03:07.138Z,5.50
2017-12-24T03:05:35.251Z,4.93
2017-12-24T03:08:03.363Z,5.57
2017-12-24T03:10:31.502Z,5.33
2017-12-24T03:13:00.377Z,5.80
2017-12-24T03:15:28.529Z,5.27
2017-12-24T03:17:56.656Z,6.10
2017-12-24T03:20:25.542Z,4.60
2017-12-24T03:22:54.426Z,5.53
2017-12-24T03:25:23.328Z,6.10
2017-12-24T03:27:51.448Z,5.70
2017-12-24T03:30:19.576Z,5.30
2017-12-24T03:32:47.706Z,5.70
2017-12-24T03:35:17.092Z,5.57
2017-12-24T03:37:45.274Z,5.60
2017-12-24T03:40:13.405Z,5.60
2017-12-24T03:42:41.567Z,5.17
2017-12-24T03:45:09.798Z,5.93
2017-12-24T03:47:39.731Z,5.33
2017-12-24T03:50:07.885Z,5.10
2017-12-24T03:52:36.765Z,4.90
2017-12-24T03:55:05.659Z,5.70
2017-12-24T03:57:34.560Z,4.97
2017-12-24T04:00:02.693Z,4.77
2017-12-24T04:02:30.968Z,5.60
2017-12-24T04:04:59.909Z,5.93
2017-12-24T04:07:28.118Z,4.43
2017-12-24T04:09:56.380Z,4.50
2017-12-24T04:12:24.507Z,6.33
2017-12-24T04:14:52.674Z,5.33
2017-12-24T04:17:21.662Z,5.60
2017-12-24T04:19:49.802Z,6.00
2017-12-24T04:22:18.386Z,5.73
2017-12-24T04:24:46.546Z,5.10
2017-12-24T04:27:14.731Z,5.43
2017-12-24T04:29:43.053Z,5.40
2017-12-24T04:32:11.230Z,5.47
2017-12-24T04:34:39.382Z,5.20
2017-12-24T04:37:07.545Z,5.60
2017-12-24T04:39:35.697Z,5.20
2017-12-24T04:42:03.831Z,6.07
2017-12-24T04:44:32.201Z,5.10
2017-12-24T04:47:00.441Z,5.87
2017-12-24T04:49:29.456Z,5.70
2017-12-24T04:51:57.619Z,5.40
2017-12-24T04:54:25.780Z,6.23
2017-12-24T04:56:53.953Z,5.10
2017-12-24T04:59:22.124Z,5.57
2017-12-24T05:01:50.334Z,5.90
2017-12-24T05:04:18.615Z,6.07
2017-12-24T05:06:46.736Z,6.53
2017-12-24T05:09:29.793Z,5.97
2017-12-24T05:11:57.948Z,7.13
2017-12-24T05:14:26.382Z,7.20
2017-12-24T05:16:54.554Z,7.20
2017-12-24T05:19:24.268Z,6.37
2017-12-24T05:21:53.889Z,6.23
2017-12-24T05:24:22.050Z,5.97
2017-12-24T05:26:50.975Z,5.87
2017-12-24T05:29:19.741Z,7.00
2017-12-24T05:31:47.893Z,6.20
2017-12-24T05:34:16.123Z,6.83
2017-12-24T05:36:44.307Z,6.73
2017-12-24T05:39:12.484Z,6.10
2017-12-24T05:41:40.643Z,7.13
2017-12-24T05:44:08.859Z,6.87
2017-12-24T05:46:37.084Z,7.37
2017-12-24T05:49:05.225Z,7.50
2017-12-24T05:51:33.435Z,7.83
2017-12-24T05:54:01.640Z,6.77
2017-12-24T05:56:29.773Z,6.80
2017-12-24T05:58:57.998Z,7.00
2017-12-24T06:01:26.167Z,6.80
2017-12-24T06:03:55.067Z,6.47
2017-12-24T06:06:23.954Z,6.60
2017-12-24T06:08:52.866Z,6.63
2017-12-24T06:11:21.139Z,6.57
2017-12-24T06:13:49.300Z,7.80
2017-12-24T06:16:17.422Z,7.93
2017-12-24T06:18:45.594Z,6.43
2017-12-24T06:21:13.708Z,7.07
2017-12-24T06:23:41.931Z,6.73
2017-12-24T06:26:10.125Z,6.90
2017-12-24T06:28:38.285Z,7.50
2017-12-24T06:31:06.413Z,6.87
2017-12-24T06:33:34.566Z,6.53
2017-12-24T06:36:03.522Z,6.07
2017-12-24T06:38:31.754Z,6.53
2017-12-24T06:41:00.136Z,6.63
2017-12-24T06:43:28.449Z,6.77
2017-12-24T06:45:56.647Z,6.10
2017-12-24T06:48:25.533Z,5.70
2017-12-24T06:50:53.787Z,6.10
2017-12-24T06:53:21.969Z,5.80
2017-12-24T06:55:50.099Z,6.83
2017-12-24T06:58:18.386Z,5.60
2017-12-24T07:00:46.585Z,5.50
2017-12-24T07:03:14.710Z,5.10
2017-12-24T07:05:42.901Z,5.90
2017-12-24T07:08:11.107Z,5.43
2017-12-24T07:10:39.397Z,5.60
2017-12-24T07:13:07.603Z,5.30
2017-12-24T07:15:35.864Z,6.27
2017-12-24T07:18:04.005Z,6.40
2017-12-24T07:20:32.317Z,6.30
2017-12-24T07:23:01.319Z,5.43
2017-12-24T07:25:29.435Z,4.97
2017-12-24T07:27:57.763Z,4.80
2017-12-24T07:30:25.882Z,4.80
2017-12-24T07:32:54.050Z,4.80
2017-12-24T07:35:22.959Z,4.40
2017-12-24T07:37:51.238Z,5.20
2017-12-24T07:40:19.435Z,5.03
2017-12-24T07:42:47.662Z,4.87
2017-12-24T07:45:15.788Z,4.90
2017-12-24T07:47:44.031Z,5.33
2017-12-24T07:50:12.181Z,4.30
2017-12-24T07:52:40.351Z,4.70
2017-12-24T07:55:08.503Z,4.30
2017-12-24T07:57:36.642Z,4.40
2017-12-24T08:00:05.005Z,4.57
2017-12-24T08:02:33.984Z,4.73
2017-12-24T08:05:02.119Z,4.33
2017-12-24T08:07:30.290Z,5.10
2017-12-24T08:09:58.481Z,5.00
2017-12-24T08:12:26.658Z,4.70
2017-12-24T08:14:54.835Z,5.40
2017-12-24T08:17:23.041Z,6.00
2017-12-24T08:19:51.294Z,4.70
2017-12-24T08:22:20.247Z,5.07
2017-12-24T08:24:48.458Z,4.90
2017-12-24T08:27:16.629Z,5.60
2017-12-24T08:29:44.768Z,5.33
2017-12-24T08:32:12.939Z,5.53
2017-12-24T08:34:41.422Z,4.10
2017-12-24T08:37:09.591Z,4.70
2017-12-24T08:39:37.719Z,5.17
2017-12-24T08:42:05.860Z,4.07
2017-12-24T08:44:34.079Z,4.57
2017-12-24T08:47:02.250Z,4.13
2017-12-24T08:49:30.483Z,4.50
2017-12-24T08:51:59.433Z,4.60
2017-12-24T08:54:27.562Z,3.20
2017-12-24T08:56:55.724Z,3.73
2017-12-24T08:59:23.896Z,4.10
2017-12-24T09:01:52.858Z,3.87
2017-12-24T09:04:21.024Z,3.30
2017-12-24T09:06:49.223Z,5.90
2017-12-24T09:09:18.170Z,3.67
2017-12-24T09:11:46.464Z,3.10
2017-12-24T09:14:14.672Z,2.97
2017-12-24T09:16:42.885Z,3.13
2017-12-24T09:19:11.899Z,3.40
2017-12-24T09:21:40.106Z,3.80
2017-12-24T09:24:09.091Z,4.60
2017-12-24T09:26:37.318Z,6.23
2017-12-24T09:29:05.501Z,4.47
2017-12-24T09:31:33.675Z,4.90
2017-12-24T09:34:01.893Z,5.90
2017-12-24T09:36:30.504Z,5.50
2017-12-24T09:38:58.638Z,4.70
2017-12-24T09:41:27.186Z,4.73
2017-12-24T09:43:55.315Z,4.47
2017-12-24T09:46:23.485Z,4.17
2017-12-24T09:48:51.637Z,4.77
2017-12-24T09:51:19.809Z,5.10
2017-12-24T09:53:47.934Z,4.33
2017-12-24T09:56:16.114Z,4.83
2017-12-24T09:58:44.325Z,4.97
2017-12-24T10:01:12.593Z,5.07
2017-12-24T10:03:41.513Z,4.57
2017-12-24T10:06:09.685Z,4.60
2017-12-24T10:08:38.582Z,3.80
2017-12-24T10:11:06.752Z,3.90
2017-12-24T10:13:34.930Z,3.80
2017-12-24T10:16:03.029Z,4.57
2017-12-24T10:18:31.250Z,4.50
2017-12-24T10:21:00.154Z,4.90
2017-12-24T10:23:28.303Z,3.67
2017-12-24T10:25:58.840Z,4.23
2017-12-24T10:28:27.004Z,4.83
2017-12-24T10:30:55.901Z,5.03
2017-12-24T10:33:24.672Z,4.00
2017-12-24T10:35:52.814Z,4.00
2017-12-24T10:38:21.038Z,4.07
2017-12-24T10:40:49.849Z,4.30
2017-12-24T10:43:18.054Z,3.90
2017-12-24T10:45:47.003Z,4.93
2017-12-24T10:48:16.561Z,4.57
2017-12-24T10:50:45.478Z,4.83
2017-12-24T10:53:13.639Z,4.60
2017-12-24T10:55:42.296Z,3.63
2017-12-24T10:58:10.406Z,3.67
2017-12-24T11:00:38.566Z,4.07
2017-12-24T11:03:06.681Z,3.77
2017-12-24T11:05:34.872Z,3.70
2017-12-24T11:08:03.569Z,3.60
2017-12-24T11:10:32.493Z,3.03
2017-12-24T11:13:00.643Z,3.03
2017-12-24T11:15:28.803Z,3.23
2017-12-24T11:17:57.271Z,3.20
2017-12-24T11:20:26.368Z,4.03
2017-12-24T11:22:56.163Z,3.30
2017-12-24T11:25:26.654Z,3.53
2017-12-24T11:27:58.192Z,4.63
2017-12-24T11:30:27.716Z,4.00
2017-12-24T11:32:56.888Z,3.83
2017-12-24T11:35:25.550Z,3.57
2017-12-24T11:37:55.298Z,4.30
2017-12-24T11:40:23.546Z,4.60
2017-12-24T11:42:53.846Z,3.50
2017-12-24T11:45:22.804Z,3.00
2017-12-24T11:47:50.963Z,3.47
2017-12-24T11:50:19.537Z,3.00
2017-12-24T11:52:47.766Z,4.63
2017-12-24T11:55:15.999Z,4.50
2017-12-24T11:57:44.107Z,2.73
2017-12-24T12:00:13.117Z,2.57
2017-12-24T12:02:45.369Z,2.50
2017-12-24T12:05:13.611Z,2.63
2017-12-24T12:07:41.843Z,2.47
2017-12-24T12:10:10.326Z,2.53
2017-12-24T12:12:39.224Z,2.60
2017-12-24T12:15:08.229Z,2.20
2017-12-24T12:17:36.452Z,2.40
2017-12-24T12:20:04.592Z,2.10
2017-12-24T12:22:32.779Z,2.40
2017-12-24T12:25:00.912Z,1.93
2017-12-24T12:27:29.605Z,2.37
2017-12-24T12:30:00.661Z,2.53
2017-12-24T12:32:29.357Z,2.37
2017-12-24T12:34:58.592Z,2.27
2017-12-24T12:37:26.738Z,2.50
2017-12-24T12:39:56.539Z,2.70
2017-12-24T12:42:25.110Z,2.37
2017-12-24T12:44:53.305Z,2.63
2017-12-24T12:47:22.084Z,2.37
2017-12-24T12:49:50.191Z,2.30
2017-12-24T12:52:18.815Z,2.10
2017-12-24T12:54:47.024Z,2.20
2017-12-24T12:57:15.392Z,2.50
2017-12-24T12:59:43.577Z,2.40
2017-12-24T13:02:12.567Z,3.03
2017-12-24T13:04:41.684Z,2.33
2017-12-24T13:07:09.854Z,2.80
2017-12-24T13:09:38.129Z,2.80
2017-12-24T13:12:06.333Z,2.37
2017-12-24T13:14:34.545Z,3.30
2017-12-24T13:17:02.687Z,4.20
2017-12-24T13:19:30.927Z,2.83
2017-12-24T13:22:01.215Z,2.53
2017-12-24T13:24:30.194Z,2.80
2017-12-24T13:27:01.034Z,2.90
2017-12-24T13:29:31.048Z,2.53
2017-12-24T13:32:01.321Z,2.90
2017-12-24T13:34:30.536Z,2.57
2017-12-24T13:36:58.811Z,3.17
2017-12-24T13:39:27.756Z,2.33
2017-12-24T13:41:58.378Z,2.50
2017-12-24T13:44:27.994Z,3.47
2017-12-24T13:46:57.178Z,2.77
2017-12-24T13:49:26.128Z,2.77
2017-12-24T13:51:55.094Z,3.40
2017-12-24T13:54:23.272Z,3.13
2017-12-24T13:56:53.313Z,2.73
2017-12-24T13:59:22.242Z,4.00
2017-12-24T14:01:50.967Z,3.50
2017-12-24T14:04:19.144Z,3.30
2017-12-24T14:06:47.872Z,3.27
2017-12-24T14:09:18.784Z,4.00
2017-12-24T14:11:47.886Z,3.13
2017-12-24T14:14:16.857Z,3.50
2017-12-24T14:16:46.235Z,4.23
2017-12-24T14:19:15.696Z,3.50
2017-12-24T14:21:43.866Z,2.80
2017-12-24T14:24:13.766Z,3.33
2017-12-24T14:26:43.170Z,3.17
2017-12-24T14:29:12.051Z,3.20
2017-12-24T14:31:40.248Z,3.80
2017-12-24T14:34:08.548Z,3.47
2017-12-24T14:36:36.715Z,4.03
2017-12-24T14:39:04.866Z,4.30
2017-12-24T14:41:33.759Z,3.57
2017-12-24T14:44:02.683Z,4.30
2017-12-24T14:46:31.482Z,4.40
2017-12-24T14:49:00.479Z,4.17
2017-12-24T14:51:28.623Z,4.83
2017-12-24T14:53:56.809Z,4.90
2017-12-24T14:56:25.713Z,4.10
2017-12-24T14:58:53.958Z,4.97
2017-12-24T15:01:24.951Z,4.23
2017-12-24T15:03:55.554Z,4.70
2017-12-24T15:06:24.382Z,3.67
2017-12-24T15:08:53.568Z,4.10
2017-12-24T15:11:25.636Z,4.90
2017-12-24T15:13:53.833Z,3.57
2017-12-24T15:16:25.327Z,3.87
2017-12-24T15:18:54.978Z,3.60
2017-12-24T15:21:24.104Z,3.87
2017-12-24T15:23:53.815Z,3.77
2017-12-24T15:26:22.625Z,3.47
2017-12-24T15:28:51.658Z,4.30
2017-12-24T15:31:20.666Z,4.87
2017-12-24T15:33:51.091Z,4.20
2017-12-24T15:36:21.257Z,3.97
2017-12-24T15:38:52.387Z,4.07
2017-12-24T15:41:20.542Z,4.07
2017-12-24T15:43:49.776Z,4.00
2017-12-24T15:46:19.827Z,4.60
2017-12-24T15:51:44.805Z,4.77
2017-12-24T15:54:12.921Z,4.70
2017-12-24T15:56:41.050Z,4.80
2017-12-24T15:59:09.162Z,5.30
2017-12-24T16:01:37.331Z,5.60
2017-12-24T16:04:05.457Z,4.93
2017-12-24T16:06:33.598Z,4.73
2017-12-24T16:09:01.721Z,4.97
2017-12-24T16:11:30.596Z,4.80
2017-12-24T16:13:58.716Z,5.03
2017-12-24T16:16:26.826Z,5.33
2017-12-24T16:18:54.953Z,5.93
2017-12-24T16:21:23.168Z,5.00
2017-12-24T16:23:51.337Z,5.93
2017-12-24T16:26:19.808Z,5.73
2017-12-24T16:28:47.909Z,5.50
2017-12-24T16:31:16.041Z,5.63
2017-12-24T16:33:44.156Z,5.67
2017-12-24T16:36:12.270Z,6.00
2017-12-24T16:38:40.371Z,4.83
2017-12-24T16:41:08.501Z,5.90
2017-12-24T16:43:36.626Z,5.10
2017-12-24T16:46:04.741Z,6.07
2017-12-24T16:48:32.864Z,5.47
2017-12-24T16:51:01.037Z,5.23
2017-12-24T16:53:29.144Z,4.50
2017-12-24T16:55:57.271Z,5.87
2017-12-24T16:58:25.396Z,5.87
2017-12-24T17:00:53.537Z,5.47
2017-12-24T17:03:21.651Z,5.87
2017-12-24T17:05:49.772Z,5.63
2017-12-24T17:08:17.884Z,5.90
2017-12-24T17:10:46.012Z,6.83
2017-12-24T17:13:14.117Z,6.20
2017-12-24T17:15:42.276Z,6.33
2017-12-24T17:18:11.158Z,5.93
2017-12-24T17:20:39.301Z,5.50
2017-12-24T17:23:07.430Z,6.70
2017-12-24T17:25:35.540Z,6.30
2017-12-24T17:28:03.665Z,6.93
2017-12-24T17:30:31.781Z,5.27
2017-12-24T17:32:59.909Z,6.10
2017-12-24T17:35:28.012Z,7.37
2017-12-24T17:37:56.135Z,6.60
2017-12-24T17:40:25.093Z,6.70
2017-12-24T17:42:53.296Z,6.40
2017-12-24T17:45:22.184Z,6.80
2017-12-24T17:47:51.056Z,6.90
2017-12-24T17:50:19.256Z,6.80
2017-12-24T17:52:47.364Z,7.87
2017-12-24T17:55:15.598Z,7.73
2017-12-24T17:57:43.732Z,8.23
2017-12-24T18:00:11.849Z,8.63
2017-12-24T18:02:39.969Z,7.97
2017-12-24T18:05:08.100Z,8.03
2017-12-24T18:07:36.216Z,9.43
2017-12-24T18:10:04.388Z,8.10
2017-12-24T18:12:32.500Z,7.73
2017-12-24T18:15:00.629Z,8.00
2017-12-24T18:17:28.767Z,7.70
2017-12-24T18:19:56.889Z,7.43
2017-12-24T18:22:25.012Z,8.10
2017-12-24T18:24:53.119Z,8.80
2017-12-24T18:27:21.236Z,8.30
2017-12-24T18:29:49.352Z,7.70
2017-12-24T18:32:17.481Z,7.80
2017-12-24T18:34:45.606Z,6.83
2017-12-24T18:37:13.745Z,7.53
2017-12-24T18:39:41.868Z,7.97
2017-12-24T18:42:10.028Z,7.33
2017-12-24T18:44:38.102Z,7.50
2017-12-24T18:47:06.219Z,8.20
2017-12-24T18:49:34.320Z,8.60
2017-12-24T18:52:02.490Z,8.50
2017-12-24T18:54:30.592Z,8.80
2017-12-24T18:56:59.485Z,10.27
2017-12-24T18:59:28.368Z,9.27
2017-12-24T19:01:57.256Z,8.23
2017-12-24T19:04:26.140Z,8.93
2017-12-24T19:06:54.265Z,8.97
2017-12-24T19:09:22.394Z,10.60
2017-12-24T19:11:51.290Z,9.80
2017-12-24T19:14:20.181Z,10.50
2017-12-24T19:16:48.291Z,9.80
2017-12-24T19:19:16.428Z,10.00
2017-12-24T19:21:44.541Z,9.80
2017-12-24T19:24:12.670Z,10.90
2017-12-24T19:26:40.792Z,10.30
2017-12-24T19:29:09.743Z,10.30
2017-12-24T19:31:37.838Z,8.60
2017-12-24T19:34:05.959Z,8.60
2017-12-24T19:36:34.886Z,8.97
2017-12-24T19:39:03.047Z,9.33
2017-12-24T19:41:31.199Z,8.50
2017-12-24T19:44:00.124Z,8.20
2017-12-24T19:46:28.220Z,7.47
2017-12-24T19:48:56.352Z,6.60
2017-12-24T19:51:24.513Z,7.17
2017-12-24T19:53:53.388Z,8.03
2017-12-24T19:56:22.264Z,6.27
2017-12-24T19:58:50.388Z,6.90
2017-12-24T20:01:18.540Z,6.60
2017-12-24T20:03:47.458Z,6.73
2017-12-24T20:06:15.571Z,6.87
2017-12-24T20:08:43.744Z,6.60
2017-12-24T20:11:11.867Z,7.27
2017-12-24T20:13:40.041Z,7.43
2017-12-24T20:16:08.185Z,6.50
2017-12-24T20:18:37.102Z,6.20
2017-12-24T20:21:05.242Z,4.70
2017-12-24T20:23:34.164Z,6.57
2017-12-24T20:26:02.319Z,6.13
2017-12-24T20:28:31.220Z,5.20
2017-12-24T20:30:59.371Z,5.63
2017-12-24T20:33:28.274Z,5.03
2017-12-24T20:35:56.384Z,5.70
2017-12-24T20:38:24.544Z,5.67
2017-12-24T20:40:52.714Z,6.30
2017-12-24T20:43:20.891Z,5.60
2017-12-24T20:45:49.051Z,5.13
2017-12-24T20:48:17.196Z,5.90
2017-12-24T20:50:46.057Z,5.80
2017-12-24T20:53:14.994Z,6.30
2017-12-24T20:55:43.129Z,5.20
2017-12-24T20:58:12.054Z,5.37
2017-12-24T21:00:40.206Z,5.17
2017-12-24T21:03:09.129Z,5.57
2017-12-24T21:05:38.079Z,10.00
2017-12-24T21:08:06.260Z,6.90
2017-12-24T21:10:35.172Z,6.63
2017-12-24T21:13:03.281Z,5.50
2017-12-24T21:15:31.459Z,5.03
2017-12-24T21:17:59.573Z,5.53
2017-12-24T21:20:27.733Z,4.80
2017-12-24T21:22:56.611Z,5.30
2017-12-24T21:25:25.531Z,5.30
2017-12-24T21:27:53.691Z,4.40
2017-12-24T21:30:22.585Z,5.00
2017-12-24T21:32:50.714Z,4.17
2017-12-24T21:35:18.824Z,4.10
2017-12-24T21:37:46.996Z,4.10
2017-12-24T21:40:15.917Z,4.30
2017-12-24T21:42:45.175Z,5.40
2017-12-24T21:45:14.078Z,4.00
2017-12-24T21:47:42.908Z,4.60
2017-12-24T21:50:11.017Z,5.00
2017-12-24T21:52:39.889Z,5.33
2017-12-24T21:55:08.871Z,4.13
2017-12-24T21:57:37.011Z,3.80
2017-12-24T22:00:05.201Z,4.00
2017-12-24T22:02:33.351Z,4.10
2017-12-24T22:05:01.507Z,3.90
2017-12-24T22:07:29.678Z,4.20
2017-12-24T22:09:57.933Z,4.00
2017-12-24T22:12:26.899Z,4.10
2017-12-24T22:14:55.080Z,4.40
2017-12-24T22:17:23.239Z,4.00
2017-12-24T22:19:51.390Z,3.67
2017-12-24T22:22:19.547Z,3.50
2017-12-24T22:24:47.687Z,4.67
2017-12-24T22:27:15.845Z,4.20
2017-12-24T22:29:43.998Z,3.80
2017-12-24T22:32:12.111Z,3.00
2017-12-24T22:34:40.258Z,2.83
2017-12-24T22:37:08.427Z,3.23
2017-12-24T22:39:36.528Z,3.90
2017-12-24T22:42:04.669Z,3.83
2017-12-24T22:44:32.814Z,3.70
2017-12-24T22:47:00.977Z,3.60
2017-12-24T22:49:29.143Z,3.60
2017-12-24T22:51:57.297Z,4.00
2017-12-24T22:54:25.421Z,4.20
2017-12-24T22:56:53.633Z,3.90
2017-12-24T22:59:21.803Z,3.40
2017-12-24T23:01:49.963Z,3.77
2017-12-24T23:04:18.865Z,3.90
2017-12-24T23:06:46.981Z,3.67
2017-12-24T23:09:15.166Z,3.47
2017-12-24T23:11:43.307Z,3.90
2017-12-24T23:14:11.433Z,3.93
2017-12-24T23:16:40.320Z,4.07
2017-12-24T23:19:09.264Z,3.40
2017-12-24T23:21:37.399Z,4.50
2017-12-24T23:24:05.564Z,4.13
2017-12-24T23:26:33.759Z,4.00
2017-12-24T23:29:02.005Z,3.87
2017-12-24T23:31:30.124Z,3.67
2017-12-24T23:33:58.279Z,3.97
2017-12-24T23:36:26.535Z,3.70
2017-12-24T23:38:55.457Z,3.60
2017-12-24T23:41:23.580Z,3.80
2017-12-24T23:43:52.471Z,4.27
2017-12-24T23:46:20.638Z,4.80
2017-12-24T23:48:49.544Z,4.73
2017-12-24T23:51:17.822Z,4.30
2017-12-24T23:53:46.743Z,3.50
2017-12-24T23:56:14.924Z,4.60
2017-12-24T23:58:43.065Z,4.40
